sensor_id;sensor_type;location;lat;lon;timestamp;P1;durP1;ratioP1;P2;durP2;ratioP2
73315;SDS011;61545;53.726;-0.444;2023-12-07T00:01:45;7.5;;;2.9;;
73315;SDS011;61545;53.726;-0.444;2023-12-07T00:06:46;8.7;;;3.2;;
73315;SDS011;61545;53.726;-0.444;2023-12-07T00:11:45;6.3;;;3;;
73315;SDS011;61545;53.726;-0.444;2023-12-07T00:16:45;9.8;;;3.2;;
73315;SDS011;61545;53.726;-0.444;2023-12-07T00:21:45;7.4;;;3.3;;
73315;SDS011;61545;53.726;-0.444;2023-12-07T00:26:46;7.4;;;3.3;;
73315;SDS011;61545;53.726;-0.444;2023-12-07T00:31:45;12.0;;;3.3;;
73315;SDS011;61545;53.726;-0.444;2023-12-07T00:36:45;8.8;;;3.1;;
73315;SDS011;61545;53.726;-0.444;2023-12-07T00:41:45;7.9;;;3.2;;
73315;SDS011;61545;53.726;-0.444;2023-12-07T00:46:46;6.3;;;2.7;;
73315;SDS011;61545;53.726;-0.444;2023-12-07T00:51:45;6.8;;;2.8;;
73315;SDS011;61545;53.726;-0.444;2023-12-07T00:56:46;6.8;;;2.8;;
73315;SDS011;61545;53.726;-0.444;2023-12-07T01:01:46;4.6;;;2.3;;
73315;SDS011;61545;53.726;-0.444;2023-12-07T01:06:46;7.1;;;3;;
73315;SDS011;61545;53.726;-0.444;2023-12-07T01:11:45;10.5;;;3.4;;
73315;SDS011;61545;53.726;-0.444;2023-12-07T01:16:45;9.0;;;2.9;;
73315;SDS011;61545;53.726;-0.444;2023-12-07T01:21:46;8.7;;;3.1;;
73315;SDS011;61545;53.726;-0.444;2023-12-07T01:26:46;8.7;;;3.1;;
73315;SDS011;61545;53.726;-0.444;2023-12-07T01:31:46;5.6;;;2.6;;
73315;SDS011;61545;53.726;-0.444;2023-12-07T01:36:46;8.8;;;3.1;;
73315;SDS011;61545;53.726;-0.444;2023-12-07T01:41:46;7.3;;;2.4;;
73315;SDS011;61545;53.726;-0.444;2023-12-07T01:46:46;9.0;;;3.4;;
73315;SDS011;61545;53.726;-0.444;2023-12-07T01:51:45;6.6;;;2.8;;
73315;SDS011;61545;53.726;-0.444;2023-12-07T01:56:45;6.6;;;2.8;;
73315;SDS011;61545;53.726;-0.444;2023-12-07T02:01:45;8.8;;;2.7;;
73315;SDS011;61545;53.726;-0.444;2023-12-07T02:06:46;6.9;;;2.4;;
73315;SDS011;61545;53.726;-0.444;2023-12-07T02:11:46;8.9;;;2.4;;
73315;SDS011;61545;53.726;-0.444;2023-12-07T02:16:48;8.7;;;2.3;;
73315;SDS011;61545;53.726;-0.444;2023-12-07T02:21:47;7.0;;;2.4;;
73315;SDS011;61545;53.726;-0.444;2023-12-07T02:26:46;7.0;;;2.4;;
73315;SDS011;61545;53.726;-0.444;2023-12-07T02:31:46;7.8;;;2.5;;
73315;SDS011;61545;53.726;-0.444;2023-12-07T02:36:46;8.2;;;2.5;;
73315;SDS011;61545;53.726;-0.444;2023-12-07T02:41:46;4.4;;;2.3;;
73315;SDS011;61545;53.726;-0.444;2023-12-07T02:46:46;4.4;;;2;;
73315;SDS011;61545;53.726;-0.444;2023-12-07T02:51:46;5.3;;;2.3;;
73315;SDS011;61545;53.726;-0.444;2023-12-07T02:56:47;5.3;;;2.3;;
73315;SDS011;61545;53.726;-0.444;2023-12-07T03:01:46;8.1;;;2.8;;
73315;SDS011;61545;53.726;-0.444;2023-12-07T03:06:46;6.4;;;2.7;;
73315;SDS011;61545;53.726;-0.444;2023-12-07T03:11:46;7.2;;;2.4;;
73315;SDS011;61545;53.726;-0.444;2023-12-07T03:16:46;6.5;;;2.8;;
73315;SDS011;61545;53.726;-0.444;2023-12-07T03:21:46;13.4;;;3.3;;
73315;SDS011;61545;53.726;-0.444;2023-12-07T03:26:46;13.4;;;3.3;;
73315;SDS011;61545;53.726;-0.444;2023-12-07T03:31:46;7.5;;;2.8;;
73315;SDS011;61545;53.726;-0.444;2023-12-07T03:36:46;9.6;;;3.6;;
73315;SDS011;61545;53.726;-0.444;2023-12-07T03:41:46;10.2;;;3.5;;
73315;SDS011;61545;53.726;-0.444;2023-12-07T03:46:46;12.2;;;3.8;;
73315;SDS011;61545;53.726;-0.444;2023-12-07T03:51:46;10.5;;;3.8;;
73315;SDS011;61545;53.726;-0.444;2023-12-07T03:56:46;10.5;;;3.8;;
73315;SDS011;61545;53.726;-0.444;2023-12-07T04:01:46;8.9;;;3.6;;
73315;SDS011;61545;53.726;-0.444;2023-12-07T04:06:46;8.8;;;3.3;;
73315;SDS011;61545;53.726;-0.444;2023-12-07T04:11:46;10.1;;;3.9;;
73315;SDS011;61545;53.726;-0.444;2023-12-07T04:16:46;8.9;;;4.1;;
73315;SDS011;61545;53.726;-0.444;2023-12-07T04:21:46;7.7;;;3.6;;
73315;SDS011;61545;53.726;-0.444;2023-12-07T04:26:46;7.7;;;3.6;;
73315;SDS011;61545;53.726;-0.444;2023-12-07T04:31:46;10.0;;;3.6;;
73315;SDS011;61545;53.726;-0.444;2023-12-07T04:36:46;14.2;;;4;;
73315;SDS011;61545;53.726;-0.444;2023-12-07T04:41:46;9.1;;;3.6;;
73315;SDS011;61545;53.726;-0.444;2023-12-07T04:46:46;7.1;;;3.2;;
73315;SDS011;61545;53.726;-0.444;2023-12-07T04:51:46;8.6;;;3.5;;
73315;SDS011;61545;53.726;-0.444;2023-12-07T04:56:46;8.6;;;3.5;;
73315;SDS011;61545;53.726;-0.444;2023-12-07T05:01:46;8.1;;;4;;
73315;SDS011;61545;53.726;-0.444;2023-12-07T05:06:46;10.3;;;4.4;;
73315;SDS011;61545;53.726;-0.444;2023-12-07T05:11:46;9.3;;;3.9;;
73315;SDS011;61545;53.726;-0.444;2023-12-07T05:16:46;10.0;;;4.3;;
73315;SDS011;61545;53.726;-0.444;2023-12-07T05:21:46;10.0;;;4.2;;
73315;SDS011;61545;53.726;-0.444;2023-12-07T05:26:46;7.3;;;4.2;;
73315;SDS011;61545;53.726;-0.444;2023-12-07T05:31:48;8.1;;;3.7;;
73315;SDS011;61545;53.726;-0.444;2023-12-07T05:36:46;10.1;;;4.4;;
73315;SDS011;61545;53.726;-0.444;2023-12-07T05:41:46;9.7;;;4.7;;
73315;SDS011;61545;53.726;-0.444;2023-12-07T05:46:46;11.4;;;4.8;;
73315;SDS011;61545;53.726;-0.444;2023-12-07T05:51:46;11.4;;;4.8;;
73315;SDS011;61545;53.726;-0.444;2023-12-07T05:56:46;11.4;;;4.4;;
73315;SDS011;61545;53.726;-0.444;2023-12-07T06:01:46;9.1;;;4.7;;
73315;SDS011;61545;53.726;-0.444;2023-12-07T06:06:46;10.2;;;4.9;;
73315;SDS011;61545;53.726;-0.444;2023-12-07T06:11:46;13.0;;;5.6;;
73315;SDS011;61545;53.726;-0.444;2023-12-07T06:16:46;11.6;;;4.9;;
73315;SDS011;61545;53.726;-0.444;2023-12-07T06:21:46;11.6;;;4.9;;
73315;SDS011;61545;53.726;-0.444;2023-12-07T06:26:46;12.6;;;5.5;;
73315;SDS011;61545;53.726;-0.444;2023-12-07T06:31:46;12.4;;;5.5;;
73315;SDS011;61545;53.726;-0.444;2023-12-07T06:36:46;11.4;;;5.5;;
73315;SDS011;61545;53.726;-0.444;2023-12-07T06:41:46;17.6;;;6.5;;
73315;SDS011;61545;53.726;-0.444;2023-12-07T06:46:46;12.0;;;5;;
73315;SDS011;61545;53.726;-0.444;2023-12-07T06:51:46;12.0;;;5;;
73315;SDS011;61545;53.726;-0.444;2023-12-07T06:56:46;11.6;;;5.4;;
73315;SDS011;61545;53.726;-0.444;2023-12-07T07:01:46;15.1;;;5.5;;
73315;SDS011;61545;53.726;-0.444;2023-12-07T07:06:46;11.0;;;5.2;;
73315;SDS011;61545;53.726;-0.444;2023-12-07T07:11:47;14.7;;;5.4;;
73315;SDS011;61545;53.726;-0.444;2023-12-07T07:16:46;13.8;;;5.3;;
73315;SDS011;61545;53.726;-0.444;2023-12-07T07:21:46;13.8;;;5.3;;
73315;SDS011;61545;53.726;-0.444;2023-12-07T07:26:46;12.1;;;5.7;;
73315;SDS011;61545;53.726;-0.444;2023-12-07T07:31:46;12.6;;;5.3;;
73315;SDS011;61545;53.726;-0.444;2023-12-07T07:36:46;12.1;;;5.6;;
73315;SDS011;61545;53.726;-0.444;2023-12-07T07:41:46;14.6;;;5.9;;
73315;SDS011;61545;53.726;-0.444;2023-12-07T07:46:46;13.9;;;5.3;;
73315;SDS011;61545;53.726;-0.444;2023-12-07T07:51:46;13.9;;;5.3;;
73315;SDS011;61545;53.726;-0.444;2023-12-07T07:56:46;11.3;;;4.5;;
73315;SDS011;61545;53.726;-0.444;2023-12-07T08:01:46;15.2;;;5.5;;
73315;SDS011;61545;53.726;-0.444;2023-12-07T08:06:46;11.1;;;5.3;;
73315;SDS011;61545;53.726;-0.444;2023-12-07T08:11:46;14.6;;;5.4;;
73315;SDS011;61545;53.726;-0.444;2023-12-07T08:16:46;13.9;;;5.5;;
73315;SDS011;61545;53.726;-0.444;2023-12-07T08:21:46;13.9;;;5.5;;
73315;SDS011;61545;53.726;-0.444;2023-12-07T08:26:46;11.6;;;5.2;;
73315;SDS011;61545;53.726;-0.444;2023-12-07T08:31:46;13.7;;;5.1;;
73315;SDS011;61545;53.726;-0.444;2023-12-07T08:36:46;9.0;;;4.2;;
73315;SDS011;61545;53.726;-0.444;2023-12-07T08:41:46;11.7;;;5.1;;
73315;SDS011;61545;53.726;-0.444;2023-12-07T08:46:46;13.1;;;5.1;;
73315;SDS011;61545;53.726;-0.444;2023-12-07T08:51:46;13.1;;;5.1;;
73315;SDS011;61545;53.726;-0.444;2023-12-07T08:56:46;12.7;;;5.2;;
73315;SDS011;61545;53.726;-0.444;2023-12-07T09:01:46;12.7;;;4.6;;
73315;SDS011;61545;53.726;-0.444;2023-12-07T09:06:46;12.6;;;5.3;;
73315;SDS011;61545;53.726;-0.444;2023-12-07T09:11:46;10.5;;;4.8;;
73315;SDS011;61545;53.726;-0.444;2023-12-07T09:16:46;10.3;;;4.6;;
73315;SDS011;61545;53.726;-0.444;2023-12-07T09:21:46;10.3;;;4.6;;
73315;SDS011;61545;53.726;-0.444;2023-12-07T09:26:46;13.8;;;5;;
73315;SDS011;61545;53.726;-0.444;2023-12-07T09:31:46;11.6;;;5.4;;
73315;SDS011;61545;53.726;-0.444;2023-12-07T09:36:46;15.3;;;5.3;;
73315;SDS011;61545;53.726;-0.444;2023-12-07T09:41:46;13.9;;;6;;
73315;SDS011;61545;53.726;-0.444;2023-12-07T09:46:46;15.1;;;5.5;;
73315;SDS011;61545;53.726;-0.444;2023-12-07T09:51:46;15.1;;;5.5;;
73315;SDS011;61545;53.726;-0.444;2023-12-07T09:56:46;15.4;;;6.6;;
73315;SDS011;61545;53.726;-0.444;2023-12-07T10:01:46;11.5;;;5.9;;
73315;SDS011;61545;53.726;-0.444;2023-12-07T10:06:46;16.3;;;7.7;;
73315;SDS011;61545;53.726;-0.444;2023-12-07T10:11:46;15.0;;;6.9;;
73315;SDS011;61545;53.726;-0.444;2023-12-07T10:16:52;15.1;;;7;;
73315;SDS011;61545;53.726;-0.444;2023-12-07T10:21:46;15.1;;;7;;
73315;SDS011;61545;53.726;-0.444;2023-12-07T10:26:47;12.0;;;6.7;;
73315;SDS011;61545;53.726;-0.444;2023-12-07T10:31:46;12.4;;;7.7;;
73315;SDS011;61545;53.726;-0.444;2023-12-07T10:36:46;13.7;;;6.8;;
73315;SDS011;61545;53.726;-0.444;2023-12-07T10:41:46;15.9;;;8.2;;
73315;SDS011;61545;53.726;-0.444;2023-12-07T10:46:46;14.9;;;7.1;;
73315;SDS011;61545;53.726;-0.444;2023-12-07T10:51:50;14.9;;;7.1;;
73315;SDS011;61545;53.726;-0.444;2023-12-07T10:56:46;14.9;;;7.6;;
73315;SDS011;61545;53.726;-0.444;2023-12-07T11:01:46;15.4;;;7.9;;
73315;SDS011;61545;53.726;-0.444;2023-12-07T11:06:47;11.4;;;7.2;;
73315;SDS011;61545;53.726;-0.444;2023-12-07T11:11:47;17.0;;;8.5;;
73315;SDS011;61545;53.726;-0.444;2023-12-07T11:16:46;16.2;;;8.1;;
73315;SDS011;61545;53.726;-0.444;2023-12-07T11:21:46;16.2;;;8.1;;
73315;SDS011;61545;53.726;-0.444;2023-12-07T11:26:46;19.1;;;9.5;;
73315;SDS011;61545;53.726;-0.444;2023-12-07T11:31:46;22.0;;;9.8;;
73315;SDS011;61545;53.726;-0.444;2023-12-07T11:36:46;18.4;;;10.1;;
73315;SDS011;61545;53.726;-0.444;2023-12-07T11:41:49;18.3;;;9.8;;
73315;SDS011;61545;53.726;-0.444;2023-12-07T11:46:46;18.3;;;9.6;;
73315;SDS011;61545;53.726;-0.444;2023-12-07T11:51:46;18.3;;;9.6;;
73315;SDS011;61545;53.726;-0.444;2023-12-07T11:56:51;18.2;;;10.1;;
73315;SDS011;61545;53.726;-0.444;2023-12-07T12:01:46;19.9;;;10.6;;
73315;SDS011;61545;53.726;-0.444;2023-12-07T12:06:46;19.3;;;10.3;;
73315;SDS011;61545;53.726;-0.444;2023-12-07T12:11:46;18.6;;;10.4;;
73315;SDS011;61545;53.726;-0.444;2023-12-07T12:16:46;17.0;;;9.9;;
73315;SDS011;61545;53.726;-0.444;2023-12-07T12:21:46;17.0;;;9.9;;
73315;SDS011;61545;53.726;-0.444;2023-12-07T12:26:46;20.5;;;10.2;;
73315;SDS011;61545;53.726;-0.444;2023-12-07T12:31:46;22.1;;;10.8;;
73315;SDS011;61545;53.726;-0.444;2023-12-07T12:36:46;20.5;;;10.5;;
73315;SDS011;61545;53.726;-0.444;2023-12-07T12:41:46;19.1;;;9.8;;
73315;SDS011;61545;53.726;-0.444;2023-12-07T12:46:46;18.7;;;9.7;;
73315;SDS011;61545;53.726;-0.444;2023-12-07T12:51:46;18.7;;;9.7;;
73315;SDS011;61545;53.726;-0.444;2023-12-07T12:56:46;18.7;;;9.8;;
73315;SDS011;61545;53.726;-0.444;2023-12-07T13:01:46;19.0;;;9.1;;
73315;SDS011;61545;53.726;-0.444;2023-12-07T13:06:46;20.4;;;9.2;;
73315;SDS011;61545;53.726;-0.444;2023-12-07T13:11:46;17.2;;;8.8;;
73315;SDS011;61545;53.726;-0.444;2023-12-07T13:16:46;18.3;;;8.8;;
73315;SDS011;61545;53.726;-0.444;2023-12-07T13:21:46;18.3;;;8.8;;
73315;SDS011;61545;53.726;-0.444;2023-12-07T13:26:46;17.9;;;8.6;;
73315;SDS011;61545;53.726;-0.444;2023-12-07T13:31:46;16.1;;;7.5;;
73315;SDS011;61545;53.726;-0.444;2023-12-07T13:36:46;20.6;;;8.7;;
73315;SDS011;61545;53.726;-0.444;2023-12-07T13:41:46;17.5;;;9;;
73315;SDS011;61545;53.726;-0.444;2023-12-07T13:46:47;24.9;;;10.5;;
73315;SDS011;61545;53.726;-0.444;2023-12-07T13:51:46;24.9;;;10.5;;
73315;SDS011;61545;53.726;-0.444;2023-12-07T13:56:46;18.1;;;7.5;;
73315;SDS011;61545;53.726;-0.444;2023-12-07T14:01:46;15.5;;;7.4;;
73315;SDS011;61545;53.726;-0.444;2023-12-07T14:06:46;19.7;;;8.5;;
73315;SDS011;61545;53.726;-0.444;2023-12-07T14:11:46;19.5;;;7.7;;
73315;SDS011;61545;53.726;-0.444;2023-12-07T14:16:46;19.8;;;7.7;;
73315;SDS011;61545;53.726;-0.444;2023-12-07T14:21:46;19.8;;;7.7;;
73315;SDS011;61545;53.726;-0.444;2023-12-07T14:26:46;16.1;;;7.9;;
73315;SDS011;61545;53.726;-0.444;2023-12-07T14:31:48;17.8;;;6.8;;
73315;SDS011;61545;53.726;-0.444;2023-12-07T14:36:46;24.9;;;7.6;;
73315;SDS011;61545;53.726;-0.444;2023-12-07T14:41:46;16.7;;;7.6;;
73315;SDS011;61545;53.726;-0.444;2023-12-07T14:46:47;15.0;;;6.5;;
73315;SDS011;61545;53.726;-0.444;2023-12-07T14:51:46;15.0;;;6.5;;
73315;SDS011;61545;53.726;-0.444;2023-12-07T14:56:46;16.0;;;7;;
73315;SDS011;61545;53.726;-0.444;2023-12-07T15:01:46;12.4;;;6.6;;
73315;SDS011;61545;53.726;-0.444;2023-12-07T15:06:46;15.5;;;7.3;;
73315;SDS011;61545;53.726;-0.444;2023-12-07T15:11:46;15.5;;;6.8;;
73315;SDS011;61545;53.726;-0.444;2023-12-07T15:16:46;15.6;;;6.1;;
73315;SDS011;61545;53.726;-0.444;2023-12-07T15:21:46;15.6;;;6.1;;
73315;SDS011;61545;53.726;-0.444;2023-12-07T15:26:46;16.2;;;6.2;;
73315;SDS011;61545;53.726;-0.444;2023-12-07T15:31:46;17.7;;;6.7;;
73315;SDS011;61545;53.726;-0.444;2023-12-07T15:36:46;17.2;;;7.1;;
73315;SDS011;61545;53.726;-0.444;2023-12-07T15:41:46;15.5;;;6.1;;
73315;SDS011;61545;53.726;-0.444;2023-12-07T15:46:46;13.2;;;5.9;;
73315;SDS011;61545;53.726;-0.444;2023-12-07T15:51:46;13.2;;;5.9;;
73315;SDS011;61545;53.726;-0.444;2023-12-07T15:56:46;15.7;;;6;;
73315;SDS011;61545;53.726;-0.444;2023-12-07T16:01:46;14.0;;;6.2;;
73315;SDS011;61545;53.726;-0.444;2023-12-07T16:06:46;15.3;;;5.7;;
73315;SDS011;61545;53.726;-0.444;2023-12-07T16:11:46;13.5;;;5.9;;
73315;SDS011;61545;53.726;-0.444;2023-12-07T16:16:46;16.8;;;6.2;;
73315;SDS011;61545;53.726;-0.444;2023-12-07T16:21:46;16.8;;;6.2;;
73315;SDS011;61545;53.726;-0.444;2023-12-07T16:26:46;15.5;;;6;;
73315;SDS011;61545;53.726;-0.444;2023-12-07T16:31:46;11.4;;;5.3;;
73315;SDS011;61545;53.726;-0.444;2023-12-07T16:36:46;14.3;;;6.1;;
73315;SDS011;61545;53.726;-0.444;2023-12-07T16:41:46;12.2;;;6.1;;
73315;SDS011;61545;53.726;-0.444;2023-12-07T16:46:46;15.9;;;5.8;;
73315;SDS011;61545;53.726;-0.444;2023-12-07T16:51:46;15.9;;;5.8;;
73315;SDS011;61545;53.726;-0.444;2023-12-07T16:56:46;12.9;;;6.7;;
73315;SDS011;61545;53.726;-0.444;2023-12-07T17:01:46;16.5;;;8.1;;
73315;SDS011;61545;53.726;-0.444;2023-12-07T17:06:46;16.5;;;7.2;;
73315;SDS011;61545;53.726;-0.444;2023-12-07T17:11:46;14.9;;;6.1;;
73315;SDS011;61545;53.726;-0.444;2023-12-07T17:16:46;13.0;;;6;;
73315;SDS011;61545;53.726;-0.444;2023-12-07T17:21:46;13.0;;;6;;
73315;SDS011;61545;53.726;-0.444;2023-12-07T17:26:46;14.8;;;6.2;;
73315;SDS011;61545;53.726;-0.444;2023-12-07T17:31:46;11.5;;;5.9;;
73315;SDS011;61545;53.726;-0.444;2023-12-07T17:36:46;17.8;;;6.4;;
73315;SDS011;61545;53.726;-0.444;2023-12-07T17:41:46;16.3;;;6.8;;
73315;SDS011;61545;53.726;-0.444;2023-12-07T17:46:46;16.4;;;6.4;;
73315;SDS011;61545;53.726;-0.444;2023-12-07T17:51:46;16.4;;;6.4;;
73315;SDS011;61545;53.726;-0.444;2023-12-07T17:56:46;14.0;;;5.5;;
73315;SDS011;61545;53.726;-0.444;2023-12-07T18:01:46;15.3;;;5.8;;
73315;SDS011;61545;53.726;-0.444;2023-12-07T18:06:46;16.6;;;7.6;;
73315;SDS011;61545;53.726;-0.444;2023-12-07T18:11:46;10.8;;;4.9;;
73315;SDS011;61545;53.726;-0.444;2023-12-07T18:16:46;11.6;;;5;;
73315;SDS011;61545;53.726;-0.444;2023-12-07T18:21:46;11.6;;;5;;
73315;SDS011;61545;53.726;-0.444;2023-12-07T18:26:46;12.9;;;5.2;;
73315;SDS011;61545;53.726;-0.444;2023-12-07T18:31:46;8.5;;;4.5;;
73315;SDS011;61545;53.726;-0.444;2023-12-07T18:36:46;12.2;;;4.8;;
73315;SDS011;61545;53.726;-0.444;2023-12-07T18:41:46;14.2;;;5.3;;
73315;SDS011;61545;53.726;-0.444;2023-12-07T18:46:46;13.5;;;4.9;;
73315;SDS011;61545;53.726;-0.444;2023-12-07T18:51:46;13.5;;;4.9;;
73315;SDS011;61545;53.726;-0.444;2023-12-07T18:56:46;11.4;;;5.1;;
73315;SDS011;61545;53.726;-0.444;2023-12-07T19:01:46;13.3;;;4.6;;
73315;SDS011;61545;53.726;-0.444;2023-12-07T19:06:46;11.8;;;4.4;;
73315;SDS011;61545;53.726;-0.444;2023-12-07T19:11:46;8.2;;;4.2;;
73315;SDS011;61545;53.726;-0.444;2023-12-07T19:16:46;8.9;;;4.3;;
73315;SDS011;61545;53.726;-0.444;2023-12-07T19:21:46;8.9;;;4.3;;
73315;SDS011;61545;53.726;-0.444;2023-12-07T19:26:46;7.6;;;3.8;;
73315;SDS011;61545;53.726;-0.444;2023-12-07T19:31:46;5.7;;;3.1;;
73315;SDS011;61545;53.726;-0.444;2023-12-07T19:36:46;8.2;;;2.9;;
73315;SDS011;61545;53.726;-0.444;2023-12-07T19:41:46;4.9;;;2.9;;
73315;SDS011;61545;53.726;-0.444;2023-12-07T19:46:46;4.3;;;2.5;;
73315;SDS011;61545;53.726;-0.444;2023-12-07T19:51:46;4.3;;;2.5;;
73315;SDS011;61545;53.726;-0.444;2023-12-07T19:56:46;7.7;;;2.9;;
73315;SDS011;61545;53.726;-0.444;2023-12-07T20:01:46;4.4;;;2.2;;
73315;SDS011;61545;53.726;-0.444;2023-12-07T20:06:46;5.2;;;2.5;;
73315;SDS011;61545;53.726;-0.444;2023-12-07T20:11:46;7.2;;;3;;
73315;SDS011;61545;53.726;-0.444;2023-12-07T20:16:46;5.3;;;3;;
73315;SDS011;61545;53.726;-0.444;2023-12-07T20:21:46;5.3;;;3;;
73315;SDS011;61545;53.726;-0.444;2023-12-07T20:26:46;10.7;;;5.6;;
73315;SDS011;61545;53.726;-0.444;2023-12-07T20:31:46;9.7;;;4.8;;
73315;SDS011;61545;53.726;-0.444;2023-12-07T20:36:46;8.4;;;3.4;;
73315;SDS011;61545;53.726;-0.444;2023-12-07T20:41:46;11.9;;;4.9;;
73315;SDS011;61545;53.726;-0.444;2023-12-07T20:46:46;9.1;;;3.7;;
73315;SDS011;61545;53.726;-0.444;2023-12-07T20:51:46;9.1;;;3.7;;
73315;SDS011;61545;53.726;-0.444;2023-12-07T20:56:46;9.8;;;4.9;;
73315;SDS011;61545;53.726;-0.444;2023-12-07T21:01:46;7.9;;;4;;
73315;SDS011;61545;53.726;-0.444;2023-12-07T21:06:46;6.8;;;3.2;;
73315;SDS011;61545;53.726;-0.444;2023-12-07T21:11:46;7.4;;;3.1;;
73315;SDS011;61545;53.726;-0.444;2023-12-07T21:16:46;5.3;;;3.4;;
73315;SDS011;61545;53.726;-0.444;2023-12-07T21:21:46;5.3;;;3.4;;
73315;SDS011;61545;53.726;-0.444;2023-12-07T21:26:46;6.5;;;2.7;;
73315;SDS011;61545;53.726;-0.444;2023-12-07T21:31:46;3.7;;;1.9;;
73315;SDS011;61545;53.726;-0.444;2023-12-07T21:36:46;3.2;;;2;;
73315;SDS011;61545;53.726;-0.444;2023-12-07T21:41:46;2.7;;;1.7;;
73315;SDS011;61545;53.726;-0.444;2023-12-07T21:46:46;3.3;;;1.5;;
73315;SDS011;61545;53.726;-0.444;2023-12-07T21:51:46;3.3;;;1.5;;
73315;SDS011;61545;53.726;-0.444;2023-12-07T21:56:46;2.9;;;1.5;;
73315;SDS011;61545;53.726;-0.444;2023-12-07T22:01:46;3.2;;;1.8;;
73315;SDS011;61545;53.726;-0.444;2023-12-07T22:06:46;2.9;;;1.9;;
73315;SDS011;61545;53.726;-0.444;2023-12-07T22:11:46;3.5;;;2;;
73315;SDS011;61545;53.726;-0.444;2023-12-07T22:16:46;2.4;;;1.6;;
73315;SDS011;61545;53.726;-0.444;2023-12-07T22:21:46;2.4;;;1.6;;
73315;SDS011;61545;53.726;-0.444;2023-12-07T22:26:46;2.7;;;1.5;;
73315;SDS011;61545;53.726;-0.444;2023-12-07T22:31:46;3.6;;;1.5;;
73315;SDS011;61545;53.726;-0.444;2023-12-07T22:36:46;2.4;;;1.4;;
73315;SDS011;61545;53.726;-0.444;2023-12-07T22:41:46;1.7;;;1.2;;
73315;SDS011;61545;53.726;-0.444;2023-12-07T22:46:46;2.5;;;1.6;;
73315;SDS011;61545;53.726;-0.444;2023-12-07T22:51:46;2.5;;;1.6;;
73315;SDS011;61545;53.726;-0.444;2023-12-07T22:56:46;2.2;;;1.5;;
73315;SDS011;61545;53.726;-0.444;2023-12-07T23:01:46;2.4;;;1.5;;
73315;SDS011;61545;53.726;-0.444;2023-12-07T23:06:46;2.7;;;1.6;;
73315;SDS011;61545;53.726;-0.444;2023-12-07T23:11:46;2.6;;;1.7;;
73315;SDS011;61545;53.726;-0.444;2023-12-07T23:16:46;3.0;;;2.1;;
73315;SDS011;61545;53.726;-0.444;2023-12-07T23:21:46;3.0;;;2.1;;
73315;SDS011;61545;53.726;-0.444;2023-12-07T23:26:46;2.9;;;2.2;;
73315;SDS011;61545;53.726;-0.444;2023-12-07T23:31:46;2.7;;;1.7;;
73315;SDS011;61545;53.726;-0.444;2023-12-07T23:36:46;3.3;;;2;;
73315;SDS011;61545;53.726;-0.444;2023-12-07T23:41:46;3.7;;;2;;
73315;SDS011;61545;53.726;-0.444;2023-12-07T23:46:46;6.0;;;3.1;;
73315;SDS011;61545;53.726;-0.444;2023-12-07T23:51:46;6.0;;;3.1;;
73315;SDS011;61545;53.726;-0.444;2023-12-07T23:56:46;5.2;;;2.9;;
